Elsie, Michigan
Current Conditions -  °F | °C
As of 7:14 PM on Saturday 25 Oct 2014 (Local Time) from KRNP Reporting Station
Clear Clear  
Wind Chill: 15°   Ceiling: Unl
Heat Index: 15°   Visibility: 10mi
Dew Point: -1°   Wind: 14mph
Humidity: 33%   Direction: 290°WNW
Pressure: 29.79"   Gusts: 24mph
Location:  43.09°N, 84.39°W
Report Text: KRNP 252314Z AUTO 29012G21KT 10SM CLR 15/M01 A2979 RMK AO2 T01461014
Loading
Personal Weather Stations






























Interactive Weather Map
Tropical Storm Tracking
New forecast layout! Learn more

10-Day Weather Forecast

Advertisements
Track Severe Weather on mobile